sensor_id;sensor_type;location;lat;lon;timestamp;P1;durP1;ratioP1;P2;durP2;ratioP2
18499;SDS011;9379;52.134;11.576;2022-08-20T00:00:18;10.38;;;9.20;;
18499;SDS011;9379;52.134;11.576;2022-08-20T00:02:50;17.52;;;11.43;;
18499;SDS011;9379;52.134;11.576;2022-08-20T00:05:20;9.75;;;8.75;;
18499;SDS011;9379;52.134;11.576;2022-08-20T00:07:50;9.43;;;8.63;;
18499;SDS011;9379;52.134;11.576;2022-08-20T00:10:17;11.43;;;10.32;;
18499;SDS011;9379;52.134;11.576;2022-08-20T00:12:46;10.18;;;9.18;;
18499;SDS011;9379;52.134;11.576;2022-08-20T00:15:15;10.15;;;8.68;;
18499;SDS011;9379;52.134;11.576;2022-08-20T00:17:47;10.70;;;9.65;;
18499;SDS011;9379;52.134;11.576;2022-08-20T00:20:18;16.05;;;10.57;;
18499;SDS011;9379;52.134;11.576;2022-08-20T00:22:50;11.18;;;9.75;;
18499;SDS011;9379;52.134;11.576;2022-08-20T00:25:17;12.25;;;10.60;;
18499;SDS011;9379;52.134;11.576;2022-08-20T00:27:47;14.00;;;10.68;;
18499;SDS011;9379;52.134;11.576;2022-08-20T00:30:14;10.60;;;9.55;;
18499;SDS011;9379;52.134;11.576;2022-08-20T00:32:42;11.60;;;10.48;;
18499;SDS011;9379;52.134;11.576;2022-08-20T00:35:15;9.70;;;8.80;;
18499;SDS011;9379;52.134;11.576;2022-08-20T00:37:44;9.90;;;9.05;;
18499;SDS011;9379;52.134;11.576;2022-08-20T00:40:14;11.35;;;10.25;;
18499;SDS011;9379;52.134;11.576;2022-08-20T00:42:45;10.63;;;9.52;;
18499;SDS011;9379;52.134;11.576;2022-08-20T00:45:14;12.30;;;10.82;;
18499;SDS011;9379;52.134;11.576;2022-08-20T00:47:46;11.55;;;9.93;;
18499;SDS011;9379;52.134;11.576;2022-08-20T00:50:17;8.07;;;7.28;;
18499;SDS011;9379;52.134;11.576;2022-08-20T00:52:48;16.05;;;8.55;;
18499;SDS011;9379;52.134;11.576;2022-08-20T00:55:19;10.50;;;9.02;;
18499;SDS011;9379;52.134;11.576;2022-08-20T00:57:48;8.40;;;7.60;;
18499;SDS011;9379;52.134;11.576;2022-08-20T01:00:20;12.73;;;10.10;;
18499;SDS011;9379;52.134;11.576;2022-08-20T01:02:52;10.65;;;9.65;;
18499;SDS011;9379;52.134;11.576;2022-08-20T01:05:20;10.43;;;7.93;;
18499;SDS011;9379;52.134;11.576;2022-08-20T01:07:48;10.85;;;9.55;;
18499;SDS011;9379;52.134;11.576;2022-08-20T01:10:18;14.13;;;12.52;;
18499;SDS011;9379;52.134;11.576;2022-08-20T01:12:48;9.88;;;8.95;;
18499;SDS011;9379;52.134;11.576;2022-08-20T01:15:18;13.07;;;9.85;;
18499;SDS011;9379;52.134;11.576;2022-08-20T01:17:48;10.35;;;9.32;;
18499;SDS011;9379;52.134;11.576;2022-08-20T01:20:20;12.60;;;11.43;;
18499;SDS011;9379;52.134;11.576;2022-08-20T01:22:52;10.32;;;9.32;;
18499;SDS011;9379;52.134;11.576;2022-08-20T01:25:59;16.73;;;12.40;;
18499;SDS011;9379;52.134;11.576;2022-08-20T01:28:34;10.25;;;9.05;;
18499;SDS011;9379;52.134;11.576;2022-08-20T01:31:04;12.40;;;11.20;;
18499;SDS011;9379;52.134;11.576;2022-08-20T01:33:33;12.40;;;11.20;;
18499;SDS011;9379;52.134;11.576;2022-08-20T01:36:02;12.07;;;10.82;;
18499;SDS011;9379;52.134;11.576;2022-08-20T01:38:30;9.48;;;8.48;;
18499;SDS011;9379;52.134;11.576;2022-08-20T01:41:12;12.55;;;10.00;;
18499;SDS011;9379;52.134;11.576;2022-08-20T01:43:47;8.27;;;7.53;;
18499;SDS011;9379;52.134;11.576;2022-08-20T01:46:20;9.32;;;8.45;;
18499;SDS011;9379;52.134;11.576;2022-08-20T01:48:47;8.00;;;7.20;;
18499;SDS011;9379;52.134;11.576;2022-08-20T01:51:15;13.27;;;8.88;;
18499;SDS011;9379;52.134;11.576;2022-08-20T01:53:45;10.18;;;8.98;;
18499;SDS011;9379;52.134;11.576;2022-08-20T01:56:17;9.32;;;8.43;;
18499;SDS011;9379;52.134;11.576;2022-08-20T01:58:48;14.70;;;10.00;;
18499;SDS011;9379;52.134;11.576;2022-08-20T02:01:18;12.02;;;10.52;;
18499;SDS011;9379;52.134;11.576;2022-08-20T02:03:47;11.35;;;10.32;;
18499;SDS011;9379;52.134;11.576;2022-08-20T02:06:15;9.70;;;8.70;;
18499;SDS011;9379;52.134;11.576;2022-08-20T02:08:42;11.50;;;10.40;;
18499;SDS011;9379;52.134;11.576;2022-08-20T02:11:09;9.10;;;8.20;;
18499;SDS011;9379;52.134;11.576;2022-08-20T02:13:38;10.18;;;9.15;;
18499;SDS011;9379;52.134;11.576;2022-08-20T02:16:05;11.23;;;9.38;;
18499;SDS011;9379;52.134;11.576;2022-08-20T02:18:33;9.55;;;8.55;;
18499;SDS011;9379;52.134;11.576;2022-08-20T02:21:00;11.20;;;9.13;;
18499;SDS011;9379;52.134;11.576;2022-08-20T02:23:27;8.80;;;7.93;;
18499;SDS011;9379;52.134;11.576;2022-08-20T02:25:54;10.18;;;9.15;;
18499;SDS011;9379;52.134;11.576;2022-08-20T02:28:21;11.38;;;10.13;;
18499;SDS011;9379;52.134;11.576;2022-08-20T02:30:50;11.10;;;9.95;;
18499;SDS011;9379;52.134;11.576;2022-08-20T02:33:19;8.93;;;8.02;;
18499;SDS011;9379;52.134;11.576;2022-08-20T02:35:48;10.52;;;9.60;;
18499;SDS011;9379;52.134;11.576;2022-08-20T02:38:16;9.32;;;8.43;;
18499;SDS011;9379;52.134;11.576;2022-08-20T02:40:44;10.43;;;9.00;;
18499;SDS011;9379;52.134;11.576;2022-08-20T02:43:13;18.17;;;10.93;;
18499;SDS011;9379;52.134;11.576;2022-08-20T02:45:42;12.48;;;9.50;;
18499;SDS011;9379;52.134;11.576;2022-08-20T02:48:11;11.13;;;10.02;;
18499;SDS011;9379;52.134;11.576;2022-08-20T02:50:45;11.45;;;9.60;;
18499;SDS011;9379;52.134;11.576;2022-08-20T02:53:13;10.93;;;9.93;;
18499;SDS011;9379;52.134;11.576;2022-08-20T02:55:40;9.93;;;8.57;;
18499;SDS011;9379;52.134;11.576;2022-08-20T02:58:07;10.18;;;9.10;;
18499;SDS011;9379;52.134;11.576;2022-08-20T03:00:37;11.88;;;10.68;;
18499;SDS011;9379;52.134;11.576;2022-08-20T03:03:05;13.98;;;9.27;;
18499;SDS011;9379;52.134;11.576;2022-08-20T03:05:34;11.82;;;10.70;;
18499;SDS011;9379;52.134;11.576;2022-08-20T03:08:06;11.85;;;10.23;;
18499;SDS011;9379;52.134;11.576;2022-08-20T03:10:35;11.98;;;10.77;;
18499;SDS011;9379;52.134;11.576;2022-08-20T03:13:04;13.35;;;12.02;;
18499;SDS011;9379;52.134;11.576;2022-08-20T03:15:36;13.38;;;10.35;;
18499;SDS011;9379;52.134;11.576;2022-08-20T03:18:04;11.27;;;9.43;;
18499;SDS011;9379;52.134;11.576;2022-08-20T03:20:31;12.65;;;11.48;;
18499;SDS011;9379;52.134;11.576;2022-08-20T03:22:59;12.77;;;11.52;;
18499;SDS011;9379;52.134;11.576;2022-08-20T03:25:27;11.13;;;10.02;;
18499;SDS011;9379;52.134;11.576;2022-08-20T03:27:54;10.70;;;9.32;;
18499;SDS011;9379;52.134;11.576;2022-08-20T03:30:22;11.10;;;9.98;;
18499;SDS011;9379;52.134;11.576;2022-08-20T03:32:50;13.70;;;12.18;;
18499;SDS011;9379;52.134;11.576;2022-08-20T03:35:18;11.38;;;10.27;;
18499;SDS011;9379;52.134;11.576;2022-08-20T03:37:46;12.10;;;10.90;;
18499;SDS011;9379;52.134;11.576;2022-08-20T03:40:17;12.93;;;11.73;;
18499;SDS011;9379;52.134;11.576;2022-08-20T03:42:45;12.07;;;10.52;;
18499;SDS011;9379;52.134;11.576;2022-08-20T03:45:12;11.43;;;10.02;;
18499;SDS011;9379;52.134;11.576;2022-08-20T03:47:39;10.98;;;9.82;;
18499;SDS011;9379;52.134;11.576;2022-08-20T03:50:08;10.98;;;9.88;;
18499;SDS011;9379;52.134;11.576;2022-08-20T03:52:37;13.20;;;11.85;;
18499;SDS011;9379;52.134;11.576;2022-08-20T03:55:05;14.27;;;12.85;;
18499;SDS011;9379;52.134;11.576;2022-08-20T03:57:35;13.57;;;11.38;;
18499;SDS011;9379;52.134;11.576;2022-08-20T04:00:10;15.95;;;12.95;;
18499;SDS011;9379;52.134;11.576;2022-08-20T04:02:38;13.02;;;11.65;;
18499;SDS011;9379;52.134;11.576;2022-08-20T04:05:05;12.25;;;10.98;;
18499;SDS011;9379;52.134;11.576;2022-08-20T04:07:32;14.63;;;13.13;;
18499;SDS011;9379;52.134;11.576;2022-08-20T04:10:03;11.75;;;10.57;;
18499;SDS011;9379;52.134;11.576;2022-08-20T04:12:34;13.57;;;11.57;;
18499;SDS011;9379;52.134;11.576;2022-08-20T04:15:06;13.93;;;12.52;;
18499;SDS011;9379;52.134;11.576;2022-08-20T04:17:35;14.50;;;12.70;;
18499;SDS011;9379;52.134;11.576;2022-08-20T04:20:03;13.20;;;11.40;;
18499;SDS011;9379;52.134;11.576;2022-08-20T04:22:31;12.57;;;11.30;;
18499;SDS011;9379;52.134;11.576;2022-08-20T04:24:58;10.02;;;9.05;;
18499;SDS011;9379;52.134;11.576;2022-08-20T04:27:25;10.40;;;9.40;;
18499;SDS011;9379;52.134;11.576;2022-08-20T04:29:53;12.02;;;10.93;;
18499;SDS011;9379;52.134;11.576;2022-08-20T04:32:21;10.80;;;9.75;;
18499;SDS011;9379;52.134;11.576;2022-08-20T04:34:47;10.88;;;9.77;;
18499;SDS011;9379;52.134;11.576;2022-08-20T04:37:17;12.25;;;10.98;;
18499;SDS011;9379;52.134;11.576;2022-08-20T04:39:46;11.82;;;10.02;;
18499;SDS011;9379;52.134;11.576;2022-08-20T04:42:34;9.43;;;8.52;;
18499;SDS011;9379;52.134;11.576;2022-08-20T04:45:02;10.00;;;9.00;;
18499;SDS011;9379;52.134;11.576;2022-08-20T04:47:32;9.73;;;8.45;;
18499;SDS011;9379;52.134;11.576;2022-08-20T04:50:00;11.40;;;10.20;;
18499;SDS011;9379;52.134;11.576;2022-08-20T04:52:27;10.35;;;9.27;;
18499;SDS011;9379;52.134;11.576;2022-08-20T04:54:56;11.60;;;10.40;;
18499;SDS011;9379;52.134;11.576;2022-08-20T04:57:24;13.10;;;9.63;;
18499;SDS011;9379;52.134;11.576;2022-08-20T04:59:50;8.82;;;8.02;;
18499;SDS011;9379;52.134;11.576;2022-08-20T05:02:19;11.38;;;10.30;;
18499;SDS011;9379;52.134;11.576;2022-08-20T05:04:46;11.88;;;10.68;;
18499;SDS011;9379;52.134;11.576;2022-08-20T05:07:14;12.38;;;11.18;;
18499;SDS011;9379;52.134;11.576;2022-08-20T05:09:44;12.88;;;11.48;;
18499;SDS011;9379;52.134;11.576;2022-08-20T05:12:11;13.40;;;12.18;;
18499;SDS011;9379;52.134;11.576;2022-08-20T05:14:39;15.52;;;11.27;;
18499;SDS011;9379;52.134;11.576;2022-08-20T05:17:06;13.57;;;11.70;;
18499;SDS011;9379;52.134;11.576;2022-08-20T05:19:35;11.68;;;10.45;;
18499;SDS011;9379;52.134;11.576;2022-08-20T05:22:04;13.88;;;12.55;;
18499;SDS011;9379;52.134;11.576;2022-08-20T05:24:31;13.00;;;11.77;;
18499;SDS011;9379;52.134;11.576;2022-08-20T05:26:58;13.18;;;11.98;;
18499;SDS011;9379;52.134;11.576;2022-08-20T05:29:26;15.77;;;12.50;;
18499;SDS011;9379;52.134;11.576;2022-08-20T05:31:53;12.35;;;10.07;;
18499;SDS011;9379;52.134;11.576;2022-08-20T05:34:20;15.27;;;11.23;;
18499;SDS011;9379;52.134;11.576;2022-08-20T05:36:49;14.15;;;12.65;;
18499;SDS011;9379;52.134;11.576;2022-08-20T05:39:17;11.63;;;10.48;;
18499;SDS011;9379;52.134;11.576;2022-08-20T05:41:45;13.23;;;11.80;;
18499;SDS011;9379;52.134;11.576;2022-08-20T05:44:15;10.73;;;9.63;;
18499;SDS011;9379;52.134;11.576;2022-08-20T05:46:44;11.35;;;9.90;;
18499;SDS011;9379;52.134;11.576;2022-08-20T05:49:12;10.68;;;9.68;;
18499;SDS011;9379;52.134;11.576;2022-08-20T05:51:41;13.25;;;11.82;;
18499;SDS011;9379;52.134;11.576;2022-08-20T05:54:10;13.75;;;12.30;;
18499;SDS011;9379;52.134;11.576;2022-08-20T05:56:38;10.18;;;9.15;;
18499;SDS011;9379;52.134;11.576;2022-08-20T05:59:06;11.70;;;9.60;;
18499;SDS011;9379;52.134;11.576;2022-08-20T06:01:35;9.27;;;8.38;;
18499;SDS011;9379;52.134;11.576;2022-08-20T06:04:04;14.63;;;11.27;;
18499;SDS011;9379;52.134;11.576;2022-08-20T06:06:49;12.63;;;11.43;;
18499;SDS011;9379;52.134;11.576;2022-08-20T06:09:19;11.02;;;9.02;;
18499;SDS011;9379;52.134;11.576;2022-08-20T06:11:48;10.80;;;9.80;;
18499;SDS011;9379;52.134;11.576;2022-08-20T06:14:14;9.93;;;9.00;;
18499;SDS011;9379;52.134;11.576;2022-08-20T06:16:42;11.15;;;10.10;;
18499;SDS011;9379;52.134;11.576;2022-08-20T06:19:11;11.27;;;9.05;;
18499;SDS011;9379;52.134;11.576;2022-08-20T06:21:38;9.68;;;8.35;;
18499;SDS011;9379;52.134;11.576;2022-08-20T06:24:06;11.80;;;10.70;;
18499;SDS011;9379;52.134;11.576;2022-08-20T06:26:35;10.10;;;9.15;;
18499;SDS011;9379;52.134;11.576;2022-08-20T06:29:02;8.60;;;7.80;;
18499;SDS011;9379;52.134;11.576;2022-08-20T06:31:29;10.63;;;9.27;;
18499;SDS011;9379;52.134;11.576;2022-08-20T06:33:56;8.85;;;8.05;;
18499;SDS011;9379;52.134;11.576;2022-08-20T06:36:23;9.57;;;8.00;;
18499;SDS011;9379;52.134;11.576;2022-08-20T06:38:50;8.73;;;7.20;;
18499;SDS011;9379;52.134;11.576;2022-08-20T06:41:21;11.43;;;9.98;;
18499;SDS011;9379;52.134;11.576;2022-08-20T06:43:49;12.73;;;11.48;;
18499;SDS011;9379;52.134;11.576;2022-08-20T06:46:18;12.23;;;11.18;;
18499;SDS011;9379;52.134;11.576;2022-08-20T06:48:48;12.40;;;9.27;;
18499;SDS011;9379;52.134;11.576;2022-08-20T06:51:16;10.80;;;8.88;;
18499;SDS011;9379;52.134;11.576;2022-08-20T06:53:44;11.20;;;10.20;;
18499;SDS011;9379;52.134;11.576;2022-08-20T06:56:12;10.65;;;9.57;;
18499;SDS011;9379;52.134;11.576;2022-08-20T06:58:38;9.65;;;8.65;;
18499;SDS011;9379;52.134;11.576;2022-08-20T07:01:07;8.80;;;7.97;;
18499;SDS011;9379;52.134;11.576;2022-08-20T07:03:36;8.40;;;7.60;;
18499;SDS011;9379;52.134;11.576;2022-08-20T07:06:03;10.35;;;9.35;;
18499;SDS011;9379;52.134;11.576;2022-08-20T07:08:30;8.75;;;7.82;;
18499;SDS011;9379;52.134;11.576;2022-08-20T07:10:58;7.75;;;7.15;;
18499;SDS011;9379;52.134;11.576;2022-08-20T07:13:24;9.57;;;8.70;;
18499;SDS011;9379;52.134;11.576;2022-08-20T07:15:51;7.85;;;7.15;;
18499;SDS011;9379;52.134;11.576;2022-08-20T07:18:20;14.10;;;10.02;;
18499;SDS011;9379;52.134;11.576;2022-08-20T07:20:48;8.93;;;8.13;;
18499;SDS011;9379;52.134;11.576;2022-08-20T07:23:15;8.45;;;7.65;;
18499;SDS011;9379;52.134;11.576;2022-08-20T07:25:42;8.68;;;7.78;;
18499;SDS011;9379;52.134;11.576;2022-08-20T07:28:13;9.13;;;8.23;;
18499;SDS011;9379;52.134;11.576;2022-08-20T07:30:42;7.95;;;7.15;;
18499;SDS011;9379;52.134;11.576;2022-08-20T07:33:30;8.98;;;8.05;;
18499;SDS011;9379;52.134;11.576;2022-08-20T07:35:57;10.00;;;8.85;;
18499;SDS011;9379;52.134;11.576;2022-08-20T07:38:26;7.20;;;6.60;;
18499;SDS011;9379;52.134;11.576;2022-08-20T07:40:56;7.97;;;7.28;;
18499;SDS011;9379;52.134;11.576;2022-08-20T07:43:25;8.05;;;7.35;;
18499;SDS011;9379;52.134;11.576;2022-08-20T07:45:53;9.88;;;8.55;;
18499;SDS011;9379;52.134;11.576;2022-08-20T07:48:23;7.70;;;7.05;;
18499;SDS011;9379;52.134;11.576;2022-08-20T07:50:52;8.05;;;7.35;;
18499;SDS011;9379;52.134;11.576;2022-08-20T07:53:20;8.80;;;8.02;;
18499;SDS011;9379;52.134;11.576;2022-08-20T07:55:46;7.72;;;7.07;;
18499;SDS011;9379;52.134;11.576;2022-08-20T07:58:14;9.38;;;8.40;;
18499;SDS011;9379;52.134;11.576;2022-08-20T08:00:45;10.05;;;8.98;;
18499;SDS011;9379;52.134;11.576;2022-08-20T08:03:12;8.27;;;7.57;;
18499;SDS011;9379;52.134;11.576;2022-08-20T08:05:40;7.95;;;7.15;;
18499;SDS011;9379;52.134;11.576;2022-08-20T08:08:12;8.27;;;7.60;;
18499;SDS011;9379;52.134;11.576;2022-08-20T08:10:42;7.55;;;6.88;;
18499;SDS011;9379;52.134;11.576;2022-08-20T08:13:16;7.35;;;6.70;;
18499;SDS011;9379;52.134;11.576;2022-08-20T08:15:44;8.45;;;7.75;;
18499;SDS011;9379;52.134;11.576;2022-08-20T08:18:15;8.68;;;7.80;;
18499;SDS011;9379;52.134;11.576;2022-08-20T08:20:46;8.10;;;7.45;;
18499;SDS011;9379;52.134;11.576;2022-08-20T08:23:19;6.97;;;6.38;;
18499;SDS011;9379;52.134;11.576;2022-08-20T08:25:47;7.40;;;6.80;;
18499;SDS011;9379;52.134;11.576;2022-08-20T08:28:17;6.45;;;5.82;;
18499;SDS011;9379;52.134;11.576;2022-08-20T08:30:45;7.30;;;6.60;;
18499;SDS011;9379;52.134;11.576;2022-08-20T08:33:17;6.88;;;6.28;;
18499;SDS011;9379;52.134;11.576;2022-08-20T08:35:55;8.20;;;7.43;;
18499;SDS011;9379;52.134;11.576;2022-08-20T08:38:24;6.55;;;5.90;;
18499;SDS011;9379;52.134;11.576;2022-08-20T08:40:54;7.30;;;6.60;;
18499;SDS011;9379;52.134;11.576;2022-08-20T08:43:23;7.18;;;6.47;;
18499;SDS011;9379;52.134;11.576;2022-08-20T08:45:55;6.28;;;5.65;;
18499;SDS011;9379;52.134;11.576;2022-08-20T08:48:28;7.10;;;6.50;;
18499;SDS011;9379;52.134;11.576;2022-08-20T08:50:58;5.25;;;4.78;;
18499;SDS011;9379;52.134;11.576;2022-08-20T08:53:32;6.30;;;5.32;;
18499;SDS011;9379;52.134;11.576;2022-08-20T08:56:06;7.03;;;5.40;;
18499;SDS011;9379;52.134;11.576;2022-08-20T08:58:35;4.78;;;4.32;;
18499;SDS011;9379;52.134;11.576;2022-08-20T09:01:03;4.82;;;4.43;;
18499;SDS011;9379;52.134;11.576;2022-08-20T09:03:36;5.60;;;5.10;;
18499;SDS011;9379;52.134;11.576;2022-08-20T09:06:08;6.00;;;5.50;;
18499;SDS011;9379;52.134;11.576;2022-08-20T09:08:42;9.77;;;4.32;;
18499;SDS011;9379;52.134;11.576;2022-08-20T09:11:14;5.40;;;4.78;;
18499;SDS011;9379;52.134;11.576;2022-08-20T09:13:42;5.03;;;4.63;;
18499;SDS011;9379;52.134;11.576;2022-08-20T09:16:12;6.55;;;5.60;;
18499;SDS011;9379;52.134;11.576;2022-08-20T09:18:39;4.53;;;3.92;;
18499;SDS011;9379;52.134;11.576;2022-08-20T09:21:07;4.45;;;4.07;;
18499;SDS011;9379;52.134;11.576;2022-08-20T09:23:34;4.90;;;4.40;;
18499;SDS011;9379;52.134;11.576;2022-08-20T09:26:03;4.68;;;4.10;;
18499;SDS011;9379;52.134;11.576;2022-08-20T09:28:30;4.88;;;4.40;;
18499;SDS011;9379;52.134;11.576;2022-08-20T09:30:57;4.97;;;4.57;;
18499;SDS011;9379;52.134;11.576;2022-08-20T09:33:24;5.25;;;4.82;;
18499;SDS011;9379;52.134;11.576;2022-08-20T09:35:51;6.53;;;6.00;;
18499;SDS011;9379;52.134;11.576;2022-08-20T09:38:18;4.45;;;4.05;;
18499;SDS011;9379;52.134;11.576;2022-08-20T09:40:45;4.93;;;4.20;;
18499;SDS011;9379;52.134;11.576;2022-08-20T09:43:13;3.85;;;3.55;;
18499;SDS011;9379;52.134;11.576;2022-08-20T09:45:40;4.53;;;4.13;;
18499;SDS011;9379;52.134;11.576;2022-08-20T09:48:07;4.97;;;4.57;;
18499;SDS011;9379;52.134;11.576;2022-08-20T09:50:37;3.88;;;3.53;;
18499;SDS011;9379;52.134;11.576;2022-08-20T09:53:09;4.50;;;3.92;;
18499;SDS011;9379;52.134;11.576;2022-08-20T09:55:39;2.83;;;2.63;;
18499;SDS011;9379;52.134;11.576;2022-08-20T09:58:16;3.88;;;3.55;;
18499;SDS011;9379;52.134;11.576;2022-08-20T10:00:48;4.70;;;3.38;;
18499;SDS011;9379;52.134;11.576;2022-08-20T10:03:15;4.13;;;3.75;;
18499;SDS011;9379;52.134;11.576;2022-08-20T10:05:43;6.43;;;5.47;;
18499;SDS011;9379;52.134;11.576;2022-08-20T10:08:10;4.75;;;4.45;;
18499;SDS011;9379;52.134;11.576;2022-08-20T10:10:38;4.55;;;4.15;;
18499;SDS011;9379;52.134;11.576;2022-08-20T10:13:05;4.85;;;4.45;;
18499;SDS011;9379;52.134;11.576;2022-08-20T10:15:34;7.30;;;6.32;;
18499;SDS011;9379;52.134;11.576;2022-08-20T10:18:01;6.43;;;5.90;;
18499;SDS011;9379;52.134;11.576;2022-08-20T10:20:30;4.47;;;4.07;;
18499;SDS011;9379;52.134;11.576;2022-08-20T10:22:58;4.75;;;4.30;;
18499;SDS011;9379;52.134;11.576;2022-08-20T10:25:24;4.72;;;4.32;;
18499;SDS011;9379;52.134;11.576;2022-08-20T10:27:52;4.55;;;4.15;;
18499;SDS011;9379;52.134;11.576;2022-08-20T10:30:19;4.75;;;4.10;;
18499;SDS011;9379;52.134;11.576;2022-08-20T10:32:48;4.18;;;3.78;;
18499;SDS011;9379;52.134;11.576;2022-08-20T10:35:15;6.68;;;6.07;;
18499;SDS011;9379;52.134;11.576;2022-08-20T10:37:42;5.68;;;5.13;;
18499;SDS011;9379;52.134;11.576;2022-08-20T10:40:11;5.10;;;4.70;;
18499;SDS011;9379;52.134;11.576;2022-08-20T10:42:39;5.32;;;4.85;;
18499;SDS011;9379;52.134;11.576;2022-08-20T10:45:06;6.32;;;5.03;;
18499;SDS011;9379;52.134;11.576;2022-08-20T10:47:34;5.10;;;4.70;;
18499;SDS011;9379;52.134;11.576;2022-08-20T10:50:03;3.90;;;3.40;;
18499;SDS011;9379;52.134;11.576;2022-08-20T10:52:33;5.05;;;4.22;;
18499;SDS011;9379;52.134;11.576;2022-08-20T10:54:59;4.88;;;4.53;;
18499;SDS011;9379;52.134;11.576;2022-08-20T10:57:28;4.90;;;4.43;;
18499;SDS011;9379;52.134;11.576;2022-08-20T10:59:59;4.85;;;4.53;;
18499;SDS011;9379;52.134;11.576;2022-08-20T11:02:26;6.20;;;5.35;;
18499;SDS011;9379;52.134;11.576;2022-08-20T11:04:53;5.93;;;5.43;;
18499;SDS011;9379;52.134;11.576;2022-08-20T11:07:23;4.22;;;3.92;;
18499;SDS011;9379;52.134;11.576;2022-08-20T11:09:53;3.97;;;3.67;;
18499;SDS011;9379;52.134;11.576;2022-08-20T11:12:20;5.28;;;4.63;;
18499;SDS011;9379;52.134;11.576;2022-08-20T11:14:50;5.60;;;5.20;;
18499;SDS011;9379;52.134;11.576;2022-08-20T11:17:19;6.97;;;6.38;;
18499;SDS011;9379;52.134;11.576;2022-08-20T11:19:47;7.93;;;6.07;;
18499;SDS011;9379;52.134;11.576;2022-08-20T11:22:14;5.25;;;4.75;;
18499;SDS011;9379;52.134;11.576;2022-08-20T11:24:43;6.07;;;5.57;;
18499;SDS011;9379;52.134;11.576;2022-08-20T11:27:14;10.68;;;4.82;;
18499;SDS011;9379;52.134;11.576;2022-08-20T11:29:47;9.18;;;6.82;;
18499;SDS011;9379;52.134;11.576;2022-08-20T11:32:14;6.93;;;5.65;;
18499;SDS011;9379;52.134;11.576;2022-08-20T11:34:41;6.70;;;5.60;;
18499;SDS011;9379;52.134;11.576;2022-08-20T11:37:08;5.10;;;4.60;;
18499;SDS011;9379;52.134;11.576;2022-08-20T11:39:34;5.70;;;5.20;;
18499;SDS011;9379;52.134;11.576;2022-08-20T11:42:03;4.05;;;3.75;;
18499;SDS011;9379;52.134;11.576;2022-08-20T11:44:31;6.63;;;6.10;;
18499;SDS011;9379;52.134;11.576;2022-08-20T11:47:00;6.85;;;5.55;;
18499;SDS011;9379;52.134;11.576;2022-08-20T11:49:31;4.10;;;3.80;;
18499;SDS011;9379;52.134;11.576;2022-08-20T11:52:02;3.20;;;3.00;;
18499;SDS011;9379;52.134;11.576;2022-08-20T11:54:29;5.53;;;4.97;;
18499;SDS011;9379;52.134;11.576;2022-08-20T11:56:58;5.22;;;4.75;;
18499;SDS011;9379;52.134;11.576;2022-08-20T11:59:27;3.80;;;3.10;;
18499;SDS011;9379;52.134;11.576;2022-08-20T12:02:09;4.15;;;3.85;;
18499;SDS011;9379;52.134;11.576;2022-08-20T12:04:38;3.67;;;3.38;;
18499;SDS011;9379;52.134;11.576;2022-08-20T12:07:08;3.22;;;3.00;;
18499;SDS011;9379;52.134;11.576;2022-08-20T12:09:35;4.57;;;3.80;;
18499;SDS011;9379;52.134;11.576;2022-08-20T12:12:03;3.08;;;2.88;;
18499;SDS011;9379;52.134;11.576;2022-08-20T12:14:32;7.28;;;4.97;;
18499;SDS011;9379;52.134;11.576;2022-08-20T12:17:06;4.00;;;3.65;;
18499;SDS011;9379;52.134;11.576;2022-08-20T12:19:35;3.33;;;3.05;;
18499;SDS011;9379;52.134;11.576;2022-08-20T12:22:05;4.22;;;3.30;;
18499;SDS011;9379;52.134;11.576;2022-08-20T12:24:33;4.18;;;3.88;;
18499;SDS011;9379;52.134;11.576;2022-08-20T12:27:10;4.35;;;3.80;;
18499;SDS011;9379;52.134;11.576;2022-08-20T12:29:39;6.53;;;4.47;;
18499;SDS011;9379;52.134;11.576;2022-08-20T12:32:07;4.65;;;4.35;;
18499;SDS011;9379;52.134;11.576;2022-08-20T12:34:36;5.43;;;4.93;;
18499;SDS011;9379;52.134;11.576;2022-08-20T12:37:06;4.40;;;4.03;;
18499;SDS011;9379;52.134;11.576;2022-08-20T12:39:36;4.53;;;3.15;;
18499;SDS011;9379;52.134;11.576;2022-08-20T12:42:04;2.85;;;2.63;;
18499;SDS011;9379;52.134;11.576;2022-08-20T12:44:32;3.00;;;2.70;;
18499;SDS011;9379;52.134;11.576;2022-08-20T12:47:13;3.47;;;3.17;;
18499;SDS011;9379;52.134;11.576;2022-08-20T12:49:44;3.20;;;3.00;;
18499;SDS011;9379;52.134;11.576;2022-08-20T12:52:15;3.30;;;2.85;;
18499;SDS011;9379;52.134;11.576;2022-08-20T12:54:43;5.03;;;4.32;;
18499;SDS011;9379;52.134;11.576;2022-08-20T12:57:12;3.58;;;3.30;;
18499;SDS011;9379;52.134;11.576;2022-08-20T12:59:41;3.53;;;3.22;;
18499;SDS011;9379;52.134;11.576;2022-08-20T13:02:11;3.05;;;2.85;;
18499;SDS011;9379;52.134;11.576;2022-08-20T13:04:41;3.63;;;3.33;;
18499;SDS011;9379;52.134;11.576;2022-08-20T13:07:11;5.53;;;4.80;;
18499;SDS011;9379;52.134;11.576;2022-08-20T13:09:38;4.55;;;4.15;;
18499;SDS011;9379;52.134;11.576;2022-08-20T13:12:06;3.75;;;3.47;;
18499;SDS011;9379;52.134;11.576;2022-08-20T13:14:38;3.25;;;3.05;;
18499;SDS011;9379;52.134;11.576;2022-08-20T13:17:07;2.88;;;2.67;;
18499;SDS011;9379;52.134;11.576;2022-08-20T13:19:37;5.43;;;4.40;;
18499;SDS011;9379;52.134;11.576;2022-08-20T13:22:08;3.80;;;3.50;;
18499;SDS011;9379;52.134;11.576;2022-08-20T13:24:35;3.63;;;3.38;;
18499;SDS011;9379;52.134;11.576;2022-08-20T13:27:03;6.97;;;4.78;;
18499;SDS011;9379;52.134;11.576;2022-08-20T13:29:31;5.43;;;4.95;;
18499;SDS011;9379;52.134;11.576;2022-08-20T13:32:06;4.25;;;3.85;;
18499;SDS011;9379;52.134;11.576;2022-08-20T13:34:36;6.18;;;5.57;;
18499;SDS011;9379;52.134;11.576;2022-08-20T13:37:10;4.53;;;4.22;;
18499;SDS011;9379;52.134;11.576;2022-08-20T13:39:41;4.18;;;3.78;;
18499;SDS011;9379;52.134;11.576;2022-08-20T13:42:09;6.72;;;4.40;;
18499;SDS011;9379;52.134;11.576;2022-08-20T13:44:37;4.82;;;4.43;;
18499;SDS011;9379;52.134;11.576;2022-08-20T13:47:14;6.00;;;5.40;;
18499;SDS011;9379;52.134;11.576;2022-08-20T13:49:52;4.88;;;4.43;;
18499;SDS011;9379;52.134;11.576;2022-08-20T13:52:21;8.55;;;6.10;;
18499;SDS011;9379;52.134;11.576;2022-08-20T13:54:47;6.07;;;5.50;;
18499;SDS011;9379;52.134;11.576;2022-08-20T13:57:15;6.35;;;5.85;;
18499;SDS011;9379;52.134;11.576;2022-08-20T13:59:46;4.47;;;4.18;;
18499;SDS011;9379;52.134;11.576;2022-08-20T14:02:17;5.47;;;5.05;;
18499;SDS011;9379;52.134;11.576;2022-08-20T14:04:44;5.20;;;4.80;;
18499;SDS011;9379;52.134;11.576;2022-08-20T14:07:17;4.85;;;4.45;;
18499;SDS011;9379;52.134;11.576;2022-08-20T14:09:47;4.32;;;3.95;;
18499;SDS011;9379;52.134;11.576;2022-08-20T14:12:21;5.25;;;4.75;;
18499;SDS011;9379;52.134;11.576;2022-08-20T14:14:49;4.32;;;3.92;;
18499;SDS011;9379;52.134;11.576;2022-08-20T14:17:19;5.85;;;5.35;;
18499;SDS011;9379;52.134;11.576;2022-08-20T14:20:09;5.10;;;4.70;;
18499;SDS011;9379;52.134;11.576;2022-08-20T14:22:40;4.45;;;4.15;;
18499;SDS011;9379;52.134;11.576;2022-08-20T14:25:12;5.35;;;4.95;;
18499;SDS011;9379;52.134;11.576;2022-08-20T14:27:46;4.97;;;4.57;;
18499;SDS011;9379;52.134;11.576;2022-08-20T14:30:18;4.47;;;4.07;;
18499;SDS011;9379;52.134;11.576;2022-08-20T14:32:49;4.65;;;3.92;;
18499;SDS011;9379;52.134;11.576;2022-08-20T14:35:19;3.97;;;3.70;;
18499;SDS011;9379;52.134;11.576;2022-08-20T14:37:48;4.68;;;4.28;;
18499;SDS011;9379;52.134;11.576;2022-08-20T14:40:18;3.80;;;3.50;;
18499;SDS011;9379;52.134;11.576;2022-08-20T14:42:48;5.32;;;4.82;;
18499;SDS011;9379;52.134;11.576;2022-08-20T14:45:22;4.43;;;4.05;;
18499;SDS011;9379;52.134;11.576;2022-08-20T14:47:55;4.07;;;3.78;;
18499;SDS011;9379;52.134;11.576;2022-08-20T14:50:25;4.30;;;4.00;;